Terminal Aerodrome Forecast
Issued by NWS

Current Version | Previous Version | Graphics & Text | Print | Product List | Glossary On
Versions: 1 2 3 4 5 6 7 8 9 10 11 12 13 14 15 16 17 18 19 20 21 22 23 24
000
FTUS41 KILN 231700
TAFLCK
TAF
KLCK 231739Z 2318/2418 27006KT P6SM BKN100
     FM232000 32010KT P6SM BKN040
     FM232300 35010KT P6SM BKN100
     FM240700 02008KT P6SM SCT100
     FM241400 02009G15KT P6SM SCT035
     FM241600 02009G15KT P6SM BKN035=

USA.gov is the U.S. government's official web portal to all federal, state and local government web resources and services.